createdAt,value
2018-06-25T00:01:13.512Z,101660.42
2018-06-25T00:04:17.951Z,101656.13
2018-06-25T00:07:22.286Z,101660.92
2018-06-25T00:10:26.609Z,101653.15
2018-06-25T00:13:30.938Z,101645.70
2018-06-25T00:16:35.354Z,101651.74
2018-06-25T00:19:39.685Z,101651.36
2018-06-25T00:22:44.080Z,101655.16
2018-06-25T00:25:48.416Z,101659.56
2018-06-25T00:28:52.761Z,101664.02
2018-06-25T00:31:57.076Z,101661.73
2018-06-25T00:35:01.379Z,101653.84
2018-06-25T00:38:05.821Z,101653.36
2018-06-25T00:41:10.138Z,101646.84
2018-06-25T00:44:14.417Z,101646.71
2018-06-25T00:47:18.749Z,101654.16
2018-06-25T00:50:23.096Z,101652.85
2018-06-25T00:53:27.429Z,101650.69
2018-06-25T00:56:31.689Z,101657.59
2018-06-25T00:59:52.386Z,101648.08
2018-06-25T01:02:56.767Z,101651.12
2018-06-25T01:06:01.124Z,101654.59
2018-06-25T01:09:09.231Z,101647.16
2018-06-25T01:12:14.055Z,101644.48
2018-06-25T01:15:18.413Z,101656.15
2018-06-25T01:18:22.684Z,101650.08
2018-06-25T01:21:26.956Z,101647.95
2018-06-25T01:24:31.304Z,101644.91
2018-06-25T01:27:35.589Z,101649.75
2018-06-25T01:30:39.893Z,101654.09
2018-06-25T01:33:44.381Z,101651.86
2018-06-25T01:36:49.320Z,101646.15
2018-06-25T01:39:53.644Z,101646.08
2018-06-25T01:42:57.877Z,101656.15
2018-06-25T01:46:02.287Z,101646.95
2018-06-25T01:49:06.591Z,101638.28
2018-06-25T01:52:10.897Z,101635.67
2018-06-25T01:55:15.242Z,101637.95
2018-06-25T01:58:19.544Z,101634.91
2018-06-25T02:01:23.904Z,101641.00
2018-06-25T02:04:28.219Z,101639.34
2018-06-25T02:07:32.524Z,101638.95
2018-06-25T02:10:36.868Z,101644.65
2018-06-25T02:13:41.230Z,101645.16
2018-06-25T02:16:45.861Z,101653.48
2018-06-25T02:19:50.237Z,101649.12
2018-06-25T02:22:54.553Z,101653.48
2018-06-25T02:25:58.940Z,101647.44
2018-06-25T02:29:03.309Z,101638.33
2018-06-25T02:32:07.637Z,101646.63
2018-06-25T02:35:12.862Z,101642.78
2018-06-25T02:38:17.195Z,101648.06
2018-06-25T02:41:21.747Z,101635.51
2018-06-25T02:44:26.150Z,101640.30
2018-06-25T02:47:30.403Z,101642.91
2018-06-25T02:50:34.778Z,101642.09
2018-06-25T02:53:39.095Z,101649.09
2018-06-25T02:56:43.445Z,101647.80
2018-06-25T02:59:47.854Z,101650.95
2018-06-25T03:02:52.145Z,101647.87
2018-06-25T03:05:56.493Z,101655.30
2018-06-25T03:09:00.950Z,101651.33
2018-06-25T03:12:05.341Z,101654.48
2018-06-25T03:15:10.471Z,101662.81
2018-06-25T03:18:14.809Z,101662.81
2018-06-25T03:21:19.091Z,101656.45
2018-06-25T03:24:23.420Z,101649.94
2018-06-25T03:27:27.689Z,101663.09
2018-06-25T03:30:32.069Z,101658.64
2018-06-25T03:33:36.396Z,101673.97
2018-06-25T03:36:40.771Z,101670.92
2018-06-25T03:39:45.027Z,101670.59
2018-06-25T03:42:49.351Z,101671.17
2018-06-25T03:45:53.717Z,101667.26
2018-06-25T03:48:58.004Z,101667.56
2018-06-25T03:52:02.341Z,101661.95
2018-06-25T03:55:06.939Z,101665.52
2018-06-25T03:58:11.276Z,101668.64
2018-06-25T04:01:15.601Z,101677.05
2018-06-25T04:04:20.018Z,101684.02
2018-06-25T04:07:24.361Z,101678.84
2018-06-25T04:10:28.621Z,101688.95
2018-06-25T04:13:32.978Z,101688.16
2018-06-25T04:16:37.542Z,101684.30
2018-06-25T04:19:41.813Z,101686.84
2018-06-25T04:22:46.171Z,101677.22
2018-06-25T04:25:50.493Z,101683.75
2018-06-25T04:28:54.833Z,101685.11
2018-06-25T04:31:59.239Z,101689.56
2018-06-25T04:35:03.504Z,101678.69
2018-06-25T04:38:07.848Z,101680.09
2018-06-25T04:41:12.226Z,101681.02
2018-06-25T04:44:16.505Z,101677.92
2018-06-25T04:47:20.838Z,101683.15
2018-06-25T04:50:25.325Z,101678.89
2018-06-25T04:53:29.670Z,101676.22
2018-06-25T04:56:34.114Z,101682.32
2018-06-25T04:59:38.371Z,101677.05
2018-06-25T05:02:42.720Z,101686.73
2018-06-25T05:05:47.185Z,101683.34
2018-06-25T05:08:51.481Z,101687.31
2018-06-25T05:11:55.801Z,101686.94
2018-06-25T05:15:00.205Z,101689.88
2018-06-25T05:18:04.783Z,101691.67
2018-06-25T05:21:09.073Z,101695.30
2018-06-25T05:24:13.393Z,101696.72
2018-06-25T05:27:17.653Z,101701.08
2018-06-25T05:30:22.067Z,101700.25
2018-06-25T05:33:26.448Z,101704.22
2018-06-25T05:36:30.812Z,101706.98
2018-06-25T05:39:35.137Z,101702.09
2018-06-25T05:42:39.406Z,101704.66
2018-06-25T05:45:43.776Z,101706.88
2018-06-25T05:48:48.115Z,101703.44
2018-06-25T05:51:52.419Z,101707.95
2018-06-25T05:54:56.713Z,101715.16
2018-06-25T05:58:01.069Z,101720.78
2018-06-25T06:01:05.477Z,101720.86
2018-06-25T06:04:09.758Z,101717.53
2018-06-25T06:07:14.129Z,101714.00
2018-06-25T06:10:18.412Z,101721.45
2018-06-25T06:13:22.745Z,101722.41
2018-06-25T06:16:27.096Z,101723.28
2018-06-25T06:19:31.386Z,101722.52
2018-06-25T06:22:35.759Z,101718.33
2018-06-25T06:25:40.174Z,101722.30
2018-06-25T06:28:44.485Z,101724.05
2018-06-25T06:31:48.809Z,101725.75
2018-06-25T06:34:53.104Z,101722.42
2018-06-25T06:37:57.420Z,101726.91
2018-06-25T06:41:01.761Z,101724.59
2018-06-25T06:44:06.292Z,101729.01
2018-06-25T06:47:10.639Z,101727.78
2018-06-25T06:50:15.102Z,101727.52
2018-06-25T06:53:19.461Z,101732.71
2018-06-25T06:56:23.890Z,101738.94
2018-06-25T06:59:28.198Z,101741.72
2018-06-25T07:02:32.360Z,101741.77
2018-06-25T07:05:36.725Z,101745.94
2018-06-25T07:08:41.065Z,101741.73
2018-06-25T07:11:45.346Z,101748.47
2018-06-25T07:14:49.582Z,101751.63
2018-06-25T07:17:53.924Z,101755.95
2018-06-25T07:20:58.181Z,101750.93
2018-06-25T07:24:02.532Z,101745.37
2018-06-25T07:27:06.904Z,101746.72
2018-06-25T07:30:11.217Z,101747.08
2018-06-25T07:33:15.545Z,101754.45
2018-06-25T07:36:19.799Z,101754.09
2018-06-25T07:39:24.157Z,101744.39
2018-06-25T07:42:28.510Z,101753.15
2018-06-25T07:45:32.777Z,101753.55
2018-06-25T07:48:37.146Z,101748.83
2018-06-25T07:51:41.478Z,101748.50
2018-06-25T07:54:45.904Z,101746.90
2018-06-25T07:57:50.237Z,101744.83
2018-06-25T08:00:54.605Z,101742.51
2018-06-25T08:03:58.954Z,101746.47
2018-06-25T08:07:03.296Z,101743.08
2018-06-25T08:10:07.707Z,101743.67
2018-06-25T08:13:12.034Z,101746.99
2018-06-25T08:16:16.447Z,101748.93
2018-06-25T08:19:20.779Z,101750.78
2018-06-25T08:22:25.074Z,101751.44
2018-06-25T08:25:29.427Z,101749.13
2018-06-25T08:28:33.752Z,101752.73
2018-06-25T08:31:38.060Z,101762.52
2018-06-25T08:34:42.373Z,101763.58
2018-06-25T08:37:46.854Z,101764.52
2018-06-25T08:40:51.239Z,101773.25
2018-06-25T08:43:55.556Z,101776.52
2018-06-25T08:46:59.858Z,101778.55
2018-06-25T08:50:04.242Z,101782.42
2018-06-25T08:53:08.841Z,101784.11
2018-06-25T08:56:13.128Z,101779.19
2018-06-25T08:59:17.479Z,101783.64
2018-06-25T09:02:21.840Z,101786.55
2018-06-25T09:05:26.071Z,101794.83
2018-06-25T09:08:30.401Z,101793.97
2018-06-25T09:11:34.724Z,101800.16
2018-06-25T09:14:39.085Z,101796.20
2018-06-25T09:17:43.415Z,101792.78
2018-06-25T09:20:47.660Z,101787.03
2018-06-25T09:23:52.058Z,101787.82
2018-06-25T09:26:56.366Z,101789.53
2018-06-25T09:30:00.774Z,101796.89
2018-06-25T09:33:05.201Z,101800.73
2018-06-25T09:36:09.670Z,101795.56
2018-06-25T09:39:13.983Z,101794.81
2018-06-25T09:42:18.351Z,101796.56
2018-06-25T09:45:22.785Z,101797.97
2018-06-25T09:48:27.083Z,101793.11
2018-06-25T09:51:31.673Z,101790.17
2018-06-25T09:54:36.031Z,101790.25
2018-06-25T09:57:41.431Z,101781.59
2018-06-25T10:00:51.311Z,101779.95
2018-06-25T10:03:55.953Z,101784.74
2018-06-25T10:07:00.809Z,101790.50
2018-06-25T10:10:05.291Z,101797.55
2018-06-25T10:13:09.789Z,101795.75
2018-06-25T10:16:14.208Z,101789.54
2018-06-25T10:19:18.722Z,101796.00
2018-06-25T10:22:23.018Z,101793.37
2018-06-25T10:25:27.401Z,101802.11
2018-06-25T10:28:31.739Z,101802.90
2018-06-25T10:31:36.052Z,101798.66
2018-06-25T10:34:40.429Z,101801.59
2018-06-25T10:37:44.649Z,101802.03
2018-06-25T10:40:48.973Z,101810.35
2018-06-25T10:43:53.330Z,101813.32
2018-06-25T10:46:57.584Z,101810.12
2018-06-25T10:50:01.921Z,101805.77
2018-06-25T10:53:06.254Z,101811.08
2018-06-25T10:56:10.694Z,101812.75
2018-06-25T10:59:15.094Z,101811.98
2018-06-25T11:02:19.430Z,101810.91
2018-06-25T11:05:23.741Z,101806.05
2018-06-25T11:08:28.198Z,101804.72
2018-06-25T11:11:32.576Z,101810.62
2018-06-25T11:14:36.906Z,101808.83
2018-06-25T11:17:41.251Z,101805.30
2018-06-25T11:20:45.529Z,101799.16
2018-06-25T11:23:49.635Z,101799.18
2018-06-25T11:26:54.121Z,101797.41
2018-06-25T11:29:58.398Z,101803.61
2018-06-25T11:33:02.687Z,101801.00
2018-06-25T11:36:06.998Z,101801.41
2018-06-25T11:39:12.494Z,101800.17
2018-06-25T11:42:16.810Z,101808.05
2018-06-25T11:45:21.154Z,101800.09
2018-06-25T11:48:25.461Z,101803.56
2018-06-25T11:51:29.770Z,101800.93
2018-06-25T11:54:34.104Z,101807.13
2018-06-25T11:57:38.360Z,101803.08
2018-06-25T12:00:42.771Z,101810.91
2018-06-25T12:03:47.082Z,101813.16
2018-06-25T12:06:51.383Z,101805.19
2018-06-25T12:09:55.677Z,101814.34
2018-06-25T12:12:59.946Z,101810.81
2018-06-25T12:16:04.279Z,101811.16
2018-06-25T12:19:08.770Z,101810.09
2018-06-25T12:22:13.064Z,101813.48
2018-06-25T12:25:17.386Z,101810.61
2018-06-25T12:28:21.685Z,101812.34
2018-06-25T12:31:25.967Z,101813.70
2018-06-25T12:34:30.289Z,101812.47
2018-06-25T12:37:34.596Z,101815.05
2018-06-25T12:40:38.938Z,101817.66
2018-06-25T12:43:43.351Z,101823.39
2018-06-25T12:46:47.675Z,101820.78
2018-06-25T12:49:51.986Z,101821.22
2018-06-25T12:52:56.275Z,101826.80
2018-06-25T12:56:00.661Z,101828.62
2018-06-25T12:59:05.038Z,101824.17
2018-06-25T13:02:09.441Z,101832.83
2018-06-25T13:05:13.807Z,101830.14
2018-06-25T13:08:18.217Z,101825.78
2018-06-25T13:11:22.590Z,101833.12
2018-06-25T13:14:26.962Z,101827.76
2018-06-25T13:17:31.401Z,101827.38
2018-06-25T13:20:35.738Z,101830.16
2018-06-25T13:23:40.160Z,101827.55
2018-06-25T13:26:44.555Z,101830.27
2018-06-25T13:29:48.922Z,101831.24
2018-06-25T13:32:53.347Z,101840.09
2018-06-25T13:35:57.713Z,101843.55
2018-06-25T13:39:02.129Z,101838.30
2018-06-25T13:42:06.715Z,101845.08
2018-06-25T13:45:11.056Z,101850.73
2018-06-25T13:48:15.517Z,101847.70
2018-06-25T13:51:19.867Z,101852.06
2018-06-25T13:54:24.269Z,101849.11
2018-06-25T13:57:28.674Z,101853.59
2018-06-25T14:00:33.182Z,101859.39
2018-06-25T14:03:37.497Z,101865.15
2018-06-25T14:06:41.956Z,101865.98
2018-06-25T14:09:46.247Z,101864.77
2018-06-25T14:12:50.561Z,101870.45
2018-06-25T14:15:54.960Z,101863.45
2018-06-25T14:18:59.263Z,101869.19
2018-06-25T14:22:03.737Z,101865.19
2018-06-25T14:25:08.059Z,101853.37
2018-06-25T14:28:17.717Z,101861.75
2018-06-25T14:31:22.987Z,101868.83
2018-06-25T14:34:27.381Z,101865.30
2018-06-25T14:37:31.658Z,101869.25
2018-06-25T14:40:36.006Z,101867.06
2018-06-25T14:43:40.369Z,101868.31
2018-06-25T14:46:44.667Z,101869.70
2018-06-25T14:49:49.031Z,101867.08
2018-06-25T14:53:13.600Z,101860.92
2018-06-25T14:56:17.890Z,101871.87
2018-06-25T14:59:22.256Z,101870.56
2018-06-25T15:02:26.586Z,101864.87
2018-06-25T15:05:30.933Z,101865.32
2018-06-25T15:08:35.193Z,101864.03
2018-06-25T15:11:39.562Z,101864.88
2018-06-25T15:14:43.898Z,101875.44
2018-06-25T15:17:48.382Z,101878.07
2018-06-25T15:20:52.815Z,101873.67
2018-06-25T15:23:57.103Z,101864.42
2018-06-25T15:27:01.404Z,101863.28
2018-06-25T15:30:05.877Z,101855.25
2018-06-25T15:33:10.203Z,101862.81
2018-06-25T15:36:14.509Z,101865.81
2018-06-25T15:39:19.034Z,101868.28
2018-06-25T15:42:23.353Z,101862.05
2018-06-25T15:45:27.690Z,101861.26
2018-06-25T15:48:31.981Z,101859.98
2018-06-25T15:51:36.322Z,101860.05
2018-06-25T15:54:40.598Z,101865.75
2018-06-25T15:57:44.910Z,101863.56
2018-06-25T16:00:49.387Z,101858.55
2018-06-25T16:03:53.772Z,101862.67
2018-06-25T16:06:58.125Z,101858.29
2018-06-25T16:10:02.902Z,101855.19
2018-06-25T16:13:07.527Z,101848.13
2018-06-25T16:16:11.889Z,101856.55
2018-06-25T16:19:16.226Z,101845.02
2018-06-25T16:22:20.534Z,101844.98
2018-06-25T16:25:24.837Z,101856.36
2018-06-25T16:28:29.123Z,101858.44
2018-06-25T16:31:33.504Z,101856.05
2018-06-25T16:34:37.759Z,101855.58
2018-06-25T16:37:42.212Z,101854.07
2018-06-25T16:40:46.990Z,101859.07
2018-06-25T16:43:51.432Z,101850.34
2018-06-25T16:46:55.746Z,101850.31
2018-06-25T16:50:00.106Z,101855.67
2018-06-25T16:53:04.405Z,101856.95
2018-06-25T16:56:08.748Z,101851.56
2018-06-25T16:59:13.198Z,101852.67
2018-06-25T17:02:17.473Z,101853.87
2018-06-25T17:05:21.848Z,101847.41
2018-06-25T17:08:26.214Z,101853.45
2018-06-25T17:11:30.544Z,101849.87
2018-06-25T17:14:34.822Z,101850.53
2018-06-25T17:17:39.184Z,101850.41
2018-06-25T17:20:44.103Z,101849.40
2018-06-25T17:23:48.535Z,101847.07
2018-06-25T17:26:52.822Z,101851.99
2018-06-25T17:29:57.166Z,101848.76
2018-06-25T17:33:01.479Z,101850.05
2018-06-25T17:36:06.071Z,101846.61
2018-06-25T17:39:10.412Z,101845.67
2018-06-25T17:42:14.762Z,101849.72
2018-06-25T17:45:19.164Z,101854.39
2018-06-25T17:48:23.538Z,101855.12
2018-06-25T17:51:27.845Z,101854.92
2018-06-25T17:54:32.171Z,101861.41
2018-06-25T17:57:36.521Z,101867.56
2018-06-25T18:00:40.866Z,101859.20
2018-06-25T18:03:45.292Z,101857.98
2018-06-25T18:06:49.700Z,101866.80
2018-06-25T18:09:54.064Z,101867.11
2018-06-25T18:12:58.485Z,101874.92
2018-06-25T18:16:02.858Z,101873.98
2018-06-25T18:19:07.294Z,101875.30
2018-06-25T18:22:11.726Z,101872.64
2018-06-25T18:25:16.061Z,101880.31
2018-06-25T18:28:20.509Z,101876.08
2018-06-25T18:31:24.769Z,101883.38
2018-06-25T18:34:29.157Z,101879.74
2018-06-25T18:37:33.654Z,101873.13
2018-06-25T18:40:37.972Z,101874.83
2018-06-25T18:43:42.421Z,101889.47
2018-06-25T18:46:46.818Z,101892.05
2018-06-25T18:49:51.147Z,101885.39
2018-06-25T18:52:55.485Z,101890.59
2018-06-25T18:55:59.888Z,101898.27
2018-06-25T18:59:04.308Z,101901.70
2018-06-25T19:02:08.747Z,101890.76
2018-06-25T19:05:13.139Z,101895.05
2018-06-25T19:08:17.484Z,101895.88
2018-06-25T19:11:21.929Z,101900.98
2018-06-25T19:14:26.592Z,101914.43
2018-06-25T19:17:30.980Z,101925.95
2018-06-25T19:20:36.702Z,101917.57
2018-06-25T19:23:41.184Z,101922.41
2018-06-25T19:26:45.537Z,101926.25
2018-06-25T19:29:49.915Z,101924.11
2018-06-25T19:32:54.233Z,101935.55
2018-06-25T19:35:58.546Z,101936.82
2018-06-25T19:39:02.870Z,101936.05
2018-06-25T19:42:07.231Z,101927.76
2018-06-25T19:45:11.741Z,101929.50
2018-06-25T19:48:16.109Z,101931.48
2018-06-25T19:51:20.448Z,101930.57
2018-06-25T19:54:24.870Z,101937.06
2018-06-25T19:57:29.197Z,101934.34
2018-06-25T20:00:33.463Z,101945.30
2018-06-25T20:03:37.789Z,101940.50
2018-06-25T20:06:42.146Z,101942.58
2018-06-25T20:09:46.565Z,101952.84
2018-06-25T20:12:51.005Z,101948.27
2018-06-25T20:15:55.297Z,101952.19
2018-06-25T20:18:59.621Z,101957.87
2018-06-25T20:22:04.129Z,101959.06
2018-06-25T20:25:09.772Z,101965.03
2018-06-25T20:28:14.110Z,101965.30
2018-06-25T20:31:18.401Z,101965.39
2018-06-25T20:34:23.148Z,101966.58
2018-06-25T20:37:27.445Z,101971.81
2018-06-25T20:40:31.771Z,101960.84
2018-06-25T20:43:36.072Z,101963.91
2018-06-25T20:46:40.608Z,101965.66
2018-06-25T20:49:45.135Z,101971.25
2018-06-25T20:52:49.518Z,101973.42
2018-06-25T20:55:54.082Z,101969.33
2018-06-25T20:58:58.520Z,101980.61
2018-06-25T21:02:03.121Z,101976.67
2018-06-25T21:05:07.477Z,101986.52
2018-06-25T21:08:12.047Z,101995.48
2018-06-25T21:11:16.578Z,102002.50
2018-06-25T21:14:21.105Z,101993.78
2018-06-25T21:17:25.520Z,101997.16
2018-06-25T21:20:30.071Z,101998.82
2018-06-25T21:23:34.590Z,102000.02
2018-06-25T21:26:38.927Z,101999.22
2018-06-25T21:29:43.388Z,102003.75
2018-06-25T21:32:47.720Z,102004.23
2018-06-25T21:35:52.154Z,102004.75
2018-06-25T21:38:56.457Z,102007.23
2018-06-25T21:42:00.844Z,102007.46
2018-06-25T21:45:05.314Z,102004.30
2018-06-25T21:48:09.752Z,102017.59
2018-06-25T21:51:14.063Z,102013.63
2018-06-25T21:54:18.423Z,102019.97
2018-06-25T21:57:23.159Z,102017.00
2018-06-25T22:00:43.148Z,102022.73
2018-06-25T22:03:47.654Z,102029.74
2018-06-25T22:06:52.240Z,102028.81
2018-06-25T22:09:56.944Z,102026.32
2018-06-25T22:13:01.224Z,102021.55
2018-06-25T22:16:05.923Z,102032.05
2018-06-25T22:19:10.318Z,102023.71
2018-06-25T22:22:14.577Z,102022.73
2018-06-25T22:25:18.889Z,102010.97
2018-06-25T22:28:23.157Z,102009.58
2018-06-25T22:31:27.593Z,102019.34
2018-06-25T22:34:31.888Z,102024.88
2018-06-25T22:37:36.164Z,102030.95
2018-06-25T22:40:40.586Z,102034.00
2018-06-25T22:43:44.889Z,102032.59
2018-06-25T22:46:49.152Z,102033.02
2018-06-25T22:49:53.473Z,102025.86
2018-06-25T22:52:57.869Z,102024.98
2018-06-25T22:56:02.193Z,102030.20
2018-06-25T22:59:06.988Z,102030.07
2018-06-25T23:02:11.273Z,102025.26
2018-06-25T23:05:15.649Z,102024.75
2018-06-25T23:08:20.004Z,102029.55
2018-06-25T23:11:24.312Z,102028.05
2018-06-25T23:14:28.653Z,102026.37
2018-06-25T23:17:33.045Z,102026.67
2018-06-25T23:20:37.396Z,102032.17
2018-06-25T23:23:42.270Z,102038.05
2018-06-25T23:26:46.712Z,102029.69
2018-06-25T23:29:50.984Z,102025.18
2018-06-25T23:32:55.384Z,102018.33
2018-06-25T23:36:00.507Z,102032.31
2018-06-25T23:39:07.909Z,102032.94
2018-06-25T23:42:12.248Z,102037.73
2018-06-25T23:45:16.582Z,102035.12
2018-06-25T23:48:20.875Z,102045.98
2018-06-25T23:51:25.192Z,102042.02
2018-06-25T23:54:29.457Z,102040.69
2018-06-25T23:57:33.752Z,102041.00
